createdAt,value
2019-04-11T00:00:41.753Z,1014.86
2019-04-11T00:01:46.320Z,1014.89
2019-04-11T00:02:41.772Z,1014.91
2019-04-11T00:03:41.766Z,1014.88
2019-04-11T00:04:41.980Z,1014.90
2019-04-11T00:05:41.266Z,1014.88
2019-04-11T00:06:41.432Z,1014.88
2019-04-11T00:07:40.738Z,1014.87
2019-04-11T00:08:41.701Z,1014.88
2019-04-11T00:09:40.889Z,1014.89
2019-04-11T00:10:41.642Z,1014.91
2019-04-11T00:11:40.676Z,1015.02
2019-04-11T00:12:40.966Z,1014.99
2019-04-11T00:13:41.139Z,1015.06
2019-04-11T00:14:40.662Z,1015.01
2019-04-11T00:15:40.625Z,1015.00
2019-04-11T00:16:41.540Z,1015.03
2019-04-11T00:17:41.745Z,1015.01
2019-04-11T00:18:41.026Z,1015.00
2019-04-11T00:19:40.585Z,1015.01
2019-04-11T00:20:40.602Z,1014.97
2019-04-11T00:21:41.296Z,1015.04
2019-04-11T00:22:41.519Z,1015.01
2019-04-11T00:23:40.610Z,1015.06
2019-04-11T00:24:40.527Z,1015.05
2019-04-11T00:25:40.542Z,1015.05
2019-04-11T00:26:40.540Z,1015.08
2019-04-11T00:27:41.333Z,1015.05
2019-04-11T00:28:41.588Z,1015.03
2019-04-11T00:29:40.757Z,1015.07
2019-04-11T00:30:40.464Z,1015.10
2019-04-11T00:31:41.114Z,1015.05
2019-04-11T00:32:41.412Z,1015.07
2019-04-11T00:33:40.479Z,1015.12
2019-04-11T00:34:40.414Z,1015.18
2019-04-11T00:35:40.408Z,1015.19
2019-04-11T00:36:40.816Z,1015.14
2019-04-11T00:37:41.235Z,1015.12
2019-04-11T00:38:40.388Z,1015.17
2019-04-11T00:39:40.650Z,1015.14
2019-04-11T00:40:41.518Z,1015.15
2019-04-11T00:41:40.364Z,1015.17
2019-04-11T00:42:40.927Z,1015.19
2019-04-11T00:43:42.121Z,1015.18
2019-04-11T00:44:41.153Z,1015.18
2019-04-11T00:45:40.308Z,1015.19
2019-04-11T00:46:40.512Z,1015.21
2019-04-11T00:47:41.478Z,1015.21
2019-04-11T00:48:40.264Z,1015.18
2019-04-11T00:49:40.820Z,1015.20
2019-04-11T00:50:40.272Z,1015.25
2019-04-11T00:51:40.261Z,1015.15
2019-04-11T00:52:41.231Z,1015.18
2019-04-11T00:53:40.388Z,1015.22
2019-04-11T00:54:40.711Z,1015.20
2019-04-11T00:55:40.187Z,1015.22
2019-04-11T00:56:40.198Z,1015.20
2019-04-11T00:57:41.139Z,1015.24
2019-04-11T00:58:40.169Z,1015.18
2019-04-11T00:59:40.601Z,1015.24
2019-04-11T01:00:40.161Z,1015.21
2019-04-11T01:01:40.897Z,1015.23
2019-04-11T01:02:41.723Z,1015.25
2019-04-11T01:03:40.111Z,1015.20
2019-04-11T01:04:41.145Z,1015.28
2019-04-11T01:05:40.088Z,1015.21
2019-04-11T01:06:40.566Z,1015.15
2019-04-11T01:07:40.909Z,1015.20
2019-04-11T01:08:40.045Z,1015.31
2019-04-11T01:09:40.266Z,1015.23
2019-04-11T01:10:40.032Z,1015.22
2019-04-11T01:11:40.366Z,1015.25
2019-04-11T01:12:40.773Z,1015.23
2019-04-11T01:13:47.712Z,1015.28
2019-04-11T01:14:41.039Z,1015.23
2019-04-11T01:15:40.811Z,1015.30
2019-04-11T01:16:40.968Z,1015.26
2019-04-11T01:17:39.962Z,1015.30
2019-04-11T01:18:40.349Z,1015.27
2019-04-11T01:19:40.716Z,1015.22
2019-04-11T01:20:39.911Z,1015.27
2019-04-11T01:21:40.386Z,1015.28
2019-04-11T01:22:40.517Z,1015.33
2019-04-11T01:23:39.913Z,1015.27
2019-04-11T01:24:39.970Z,1015.34
2019-04-11T01:25:40.937Z,1015.37
2019-04-11T01:26:39.851Z,1015.33
2019-04-11T01:27:41.093Z,1015.33
2019-04-11T01:28:39.867Z,1015.37
2019-04-11T01:29:39.874Z,1015.39
2019-04-11T01:30:40.825Z,1015.41
2019-04-11T01:31:39.968Z,1015.35
2019-04-11T01:32:40.268Z,1015.33
2019-04-11T01:33:40.154Z,1015.35
2019-04-11T01:34:40.427Z,1015.38
2019-04-11T01:35:39.781Z,1015.36
2019-04-11T01:36:39.745Z,1015.36
2019-04-11T01:37:39.865Z,1015.36
2019-04-11T01:38:40.786Z,1015.36
2019-04-11T01:39:39.751Z,1015.38
2019-04-11T01:40:40.126Z,1015.36
2019-04-11T01:41:39.692Z,1015.37
2019-04-11T01:42:39.752Z,1015.34
2019-04-11T01:43:41.041Z,1015.30
2019-04-11T01:44:40.990Z,1015.39
2019-04-11T01:45:39.650Z,1015.33
2019-04-11T01:46:40.293Z,1015.42
2019-04-11T01:47:39.630Z,1015.34
2019-04-11T01:48:39.685Z,1015.37
2019-04-11T01:49:40.610Z,1015.39
2019-04-11T01:50:39.617Z,1015.41
2019-04-11T01:51:40.104Z,1015.39
2019-04-11T01:52:39.575Z,1015.39
2019-04-11T01:53:40.983Z,1015.36
2019-04-11T01:54:39.624Z,1015.39
2019-04-11T01:55:40.624Z,1015.47
2019-04-11T01:56:39.559Z,1015.37
2019-04-11T01:57:40.266Z,1015.46
2019-04-11T01:58:40.547Z,1015.43
2019-04-11T01:59:39.652Z,1015.46
2019-04-11T02:00:39.906Z,1015.44
2019-04-11T02:01:39.474Z,1015.42
2019-04-11T02:02:39.474Z,1015.45
2019-04-11T02:03:39.469Z,1015.49
2019-04-11T02:04:40.373Z,1015.49
2019-04-11T02:05:39.436Z,1015.41
2019-04-11T02:06:40.323Z,1015.56
2019-04-11T02:07:39.637Z,1015.47
2019-04-11T02:08:39.682Z,1015.43
2019-04-11T02:09:40.077Z,1015.50
2019-04-11T02:10:39.381Z,1015.53
2019-04-11T02:11:39.499Z,1015.54
2019-04-11T02:12:39.432Z,1015.51
2019-04-11T02:13:39.685Z,1015.51
2019-04-11T02:14:39.663Z,1015.56
2019-04-11T02:15:39.328Z,1015.56
2019-04-11T02:16:39.310Z,1015.54
2019-04-11T02:17:39.311Z,1015.58
2019-04-11T02:18:39.425Z,1015.56
2019-04-11T02:19:40.476Z,1015.55
2019-04-11T02:20:39.282Z,1015.56
2019-04-11T02:21:40.056Z,1015.59
2019-04-11T02:22:40.340Z,1015.62
2019-04-11T02:23:39.433Z,1015.56
2019-04-11T02:24:39.685Z,1015.61
2019-04-11T02:25:39.209Z,1015.55
2019-04-11T02:26:39.205Z,1015.61
2019-04-11T02:27:40.177Z,1015.64
2019-04-11T02:28:39.183Z,1015.61
2019-04-11T02:29:39.209Z,1015.65
2019-04-11T02:30:41.055Z,1015.64
2019-04-11T02:31:39.162Z,1015.65
2019-04-11T02:32:40.406Z,1015.64
2019-04-11T02:33:39.118Z,1015.65
2019-04-11T02:34:39.727Z,1015.70
2019-04-11T02:35:40.008Z,1015.67
2019-04-11T02:36:40.493Z,1015.64
2019-04-11T02:37:39.920Z,1015.62
2019-04-11T02:38:41.043Z,1015.67
2019-04-11T02:39:40.805Z,1015.65
2019-04-11T02:40:40.900Z,1015.66
2019-04-11T02:41:39.838Z,1015.72
2019-04-11T02:42:39.044Z,1015.69
2019-04-11T02:43:42.131Z,1015.67
2019-04-11T02:44:55.988Z,1015.67
2019-04-11T02:45:54.481Z,1015.69
2019-04-11T02:46:44.872Z,1015.72
2019-04-11T02:47:43.604Z,1015.73
2019-04-11T02:48:40.669Z,1015.77
2019-04-11T02:49:39.337Z,1015.76
2019-04-11T02:50:40.999Z,1015.82
2019-04-11T02:51:39.238Z,1015.91
2019-04-11T02:52:40.139Z,1015.78
2019-04-11T02:53:39.035Z,1015.79
2019-04-11T02:54:38.969Z,1015.83
2019-04-11T02:55:38.907Z,1015.81
2019-04-11T02:56:40.473Z,1015.79
2019-04-11T02:57:40.637Z,1015.77
2019-04-11T02:58:39.715Z,1015.84
2019-04-11T02:59:39.112Z,1015.78
2019-04-11T03:00:40.184Z,1015.79
2019-04-11T03:01:39.907Z,1015.83
2019-04-11T03:02:39.515Z,1015.80
2019-04-11T03:03:39.496Z,1015.82
2019-04-11T03:04:39.331Z,1015.82
2019-04-11T03:05:39.438Z,1015.81
2019-04-11T03:06:39.665Z,1015.78
2019-04-11T03:07:40.112Z,1015.78
2019-04-11T03:08:40.390Z,1015.81
2019-04-11T03:09:39.311Z,1015.81
2019-04-11T03:10:38.769Z,1015.84
2019-04-11T03:11:38.808Z,1015.78
2019-04-11T03:12:40.363Z,1015.81
2019-04-11T03:13:38.721Z,1015.80
2019-04-11T03:15:02.280Z,1015.83
2019-04-11T03:15:54.411Z,1015.90
2019-04-11T03:16:53.384Z,1015.86
2019-04-11T03:17:43.248Z,1015.83
2019-04-11T03:18:54.699Z,1015.86
2019-04-11T03:19:53.618Z,1015.92
2019-04-11T03:20:45.663Z,1015.88
2019-04-11T03:21:43.637Z,1015.91
2019-04-11T03:22:40.627Z,1015.91
2019-04-11T03:23:39.768Z,1015.94
2019-04-11T03:24:39.272Z,1015.82
2019-04-11T03:25:38.720Z,1015.92
2019-04-11T03:26:38.544Z,1015.93
2019-04-11T03:27:38.584Z,1015.90
2019-04-11T03:28:40.739Z,1015.91
2019-04-11T03:29:38.527Z,1015.93
2019-04-11T03:30:59.142Z,1015.93
2019-04-11T03:32:18.054Z,1015.93
2019-04-11T03:34:40.192Z,1015.97
2019-04-11T03:38:00.047Z,1015.99
2019-04-11T03:39:00.267Z,1016.01
2019-04-11T03:40:02.415Z,1016.01
2019-04-11T03:40:57.901Z,1015.99
2019-04-11T03:41:56.601Z,1015.99
2019-04-11T03:42:57.034Z,1016.01
2019-04-11T03:43:53.040Z,1016.03
2019-04-11T03:44:44.978Z,1015.98
2019-04-11T03:46:01.320Z,1016.09
2019-04-11T03:46:55.741Z,1016.02
2019-04-11T03:47:54.737Z,1016.07
2019-04-11T03:48:51.165Z,1016.04
2019-04-11T03:49:46.698Z,1016.03
2019-04-11T03:50:39.969Z,1016.08
2019-04-11T03:51:40.435Z,1016.06
2019-04-11T03:52:38.269Z,1016.10
2019-04-11T03:53:38.298Z,1016.09
2019-04-11T03:54:38.909Z,1016.06
2019-04-11T03:55:39.063Z,1016.05
2019-04-11T03:56:38.972Z,1016.05
2019-04-11T03:57:39.377Z,1016.06
2019-04-11T03:58:39.708Z,1016.07
2019-04-11T03:59:39.099Z,1016.11
2019-04-11T04:00:42.515Z,1016.04
2019-04-11T04:01:39.903Z,1016.09
2019-04-11T04:02:39.123Z,1016.07
2019-04-11T04:03:39.251Z,1016.06
2019-04-11T04:04:39.264Z,1016.07
2019-04-11T04:05:39.080Z,1016.08
2019-04-11T04:06:39.389Z,1016.10
2019-04-11T04:07:38.323Z,1016.11
2019-04-11T04:08:38.730Z,1016.10
2019-04-11T04:09:39.626Z,1016.14
2019-04-11T04:10:39.372Z,1016.17
2019-04-11T04:11:38.412Z,1016.12
2019-04-11T04:12:40.077Z,1016.15
2019-04-11T04:13:38.942Z,1016.19
2019-04-11T04:14:39.150Z,1016.22
2019-04-11T04:15:51.552Z,1016.21
2019-04-11T04:16:45.698Z,1016.17
2019-04-11T04:17:39.338Z,1016.23
2019-04-11T04:18:38.209Z,1016.21
2019-04-11T04:19:39.636Z,1016.22
2019-04-11T04:20:39.464Z,1016.26
2019-04-11T04:21:38.795Z,1016.28
2019-04-11T04:22:39.645Z,1016.30
2019-04-11T04:23:38.137Z,1016.27
2019-04-11T04:24:40.442Z,1016.27
2019-04-11T04:25:39.188Z,1016.33
2019-04-11T04:26:39.115Z,1016.28
2019-04-11T04:27:38.782Z,1016.30
2019-04-11T04:28:38.697Z,1016.26
2019-04-11T04:29:38.180Z,1016.35
2019-04-11T04:30:38.910Z,1016.33
2019-04-11T04:31:38.529Z,1016.36
2019-04-11T04:32:38.655Z,1016.41
2019-04-11T04:33:39.925Z,1016.39
2019-04-11T04:34:37.822Z,1016.40
2019-04-11T04:35:38.605Z,1016.45
2019-04-11T04:36:37.926Z,1016.46
2019-04-11T04:37:38.803Z,1016.47
2019-04-11T04:38:39.588Z,1016.48
2019-04-11T04:39:39.765Z,1016.40
2019-04-11T04:40:50.921Z,1016.47
2019-04-11T04:41:47.062Z,1016.49
2019-04-11T04:42:44.449Z,1016.43
2019-04-11T04:43:38.862Z,1016.55
2019-04-11T04:44:38.051Z,1016.52
2019-04-11T04:45:58.138Z,1016.51
2019-04-11T04:46:52.628Z,1016.52
2019-04-11T04:47:46.626Z,1016.55
2019-04-11T04:48:40.989Z,1016.60
2019-04-11T04:49:38.847Z,1016.56
2019-04-11T04:50:39.209Z,1016.53
2019-04-11T04:51:39.030Z,1016.58
2019-04-11T04:52:38.184Z,1016.61
2019-04-11T04:53:39.046Z,1016.63
2019-04-11T04:54:38.601Z,1016.64
2019-04-11T04:55:37.677Z,1016.64
2019-04-11T04:56:39.781Z,1016.67
2019-04-11T04:57:37.825Z,1016.67
2019-04-11T04:58:37.926Z,1016.67
2019-04-11T04:59:39.565Z,1016.67
2019-04-11T05:00:37.747Z,1016.65
2019-04-11T05:01:39.175Z,1016.70
2019-04-11T05:02:37.595Z,1016.67
2019-04-11T05:03:37.952Z,1016.68
2019-04-11T05:04:38.418Z,1016.64
2019-04-11T05:05:38.258Z,1016.72
2019-04-11T05:06:38.766Z,1016.70
2019-04-11T05:07:40.211Z,1016.74
2019-04-11T05:08:38.903Z,1016.70
2019-04-11T05:09:38.382Z,1016.66
2019-04-11T05:10:38.170Z,1016.70
2019-04-11T05:11:38.225Z,1016.69
2019-04-11T05:12:38.781Z,1016.77
2019-04-11T05:13:38.812Z,1016.76
2019-04-11T05:14:37.448Z,1016.73
2019-04-11T05:15:38.431Z,1016.75
2019-04-11T05:16:37.609Z,1016.75
2019-04-11T05:17:38.667Z,1016.73
2019-04-11T05:18:37.375Z,1016.70
2019-04-11T05:19:38.347Z,1016.73
2019-04-11T05:20:38.542Z,1016.70
2019-04-11T05:21:37.314Z,1016.76
2019-04-11T05:22:37.309Z,1016.76
2019-04-11T05:23:37.448Z,1016.81
2019-04-11T05:24:37.287Z,1016.81
2019-04-11T05:25:37.284Z,1016.85
2019-04-11T05:26:37.280Z,1016.82
2019-04-11T05:27:37.866Z,1016.94
2019-04-11T05:28:37.431Z,1016.88
2019-04-11T05:29:37.614Z,1016.96
2019-04-11T05:30:37.214Z,1016.89
2019-04-11T05:31:37.202Z,1016.96
2019-04-11T05:32:37.541Z,1016.92
2019-04-11T05:33:37.181Z,1016.93
2019-04-11T05:34:37.219Z,1017.02
2019-04-11T05:35:37.164Z,1016.97
2019-04-11T05:36:37.149Z,1016.97
2019-04-11T05:37:37.788Z,1017.04
2019-04-11T05:38:37.976Z,1017.06
2019-04-11T05:39:38.063Z,1017.09
2019-04-11T05:40:37.719Z,1017.05
2019-04-11T05:41:37.649Z,1017.05
2019-04-11T05:42:37.706Z,1017.02
2019-04-11T05:43:39.823Z,1017.04
2019-04-11T05:44:38.298Z,1017.08
2019-04-11T05:45:38.090Z,1017.08
2019-04-11T05:46:49.311Z,1017.11
2019-04-11T05:47:39.238Z,1017.17
2019-04-11T05:48:37.012Z,1017.06
2019-04-11T05:49:40.371Z,1017.04
2019-04-11T05:50:37.048Z,1017.10
2019-04-11T05:51:42.621Z,1017.09
2019-04-11T05:52:37.986Z,1017.12
2019-04-11T05:53:38.361Z,1017.04
2019-04-11T05:54:41.198Z,1017.10
2019-04-11T05:55:41.563Z,1017.10
2019-04-11T05:56:37.924Z,1017.15
2019-04-11T05:57:38.415Z,1017.13
2019-04-11T05:58:36.900Z,1017.17
2019-04-11T05:59:36.999Z,1017.12
2019-04-11T06:00:38.057Z,1017.09
2019-04-11T06:01:36.880Z,1017.17
2019-04-11T06:02:37.436Z,1017.11
2019-04-11T06:03:39.955Z,1017.07
2019-04-11T06:04:38.390Z,1017.08
2019-04-11T06:05:37.890Z,1017.11
2019-04-11T06:06:39.800Z,1017.12
2019-04-11T06:07:40.041Z,1017.09
2019-04-11T06:08:37.872Z,1017.13
2019-04-11T06:09:38.917Z,1017.15
2019-04-11T06:10:41.307Z,1017.19
2019-04-11T06:11:39.037Z,1017.14
2019-04-11T06:12:37.848Z,1017.13
2019-04-11T06:13:36.739Z,1017.16
2019-04-11T06:14:37.541Z,1017.21
2019-04-11T06:15:39.682Z,1017.18
2019-04-11T06:16:44.912Z,1017.17
2019-04-11T06:17:38.501Z,1017.20
2019-04-11T06:18:39.632Z,1017.18
2019-04-11T06:19:37.659Z,1017.18
2019-04-11T06:20:37.585Z,1017.22
2019-04-11T06:21:36.665Z,1017.21
2019-04-11T06:22:36.638Z,1017.22
2019-04-11T06:23:37.173Z,1017.24
2019-04-11T06:24:36.629Z,1017.16
2019-04-11T06:25:39.072Z,1017.19
2019-04-11T06:26:38.634Z,1017.22
2019-04-11T06:27:38.366Z,1017.23
2019-04-11T06:28:36.578Z,1017.29
2019-04-11T06:29:36.973Z,1017.25
2019-04-11T06:30:36.744Z,1017.24
2019-04-11T06:31:36.554Z,1017.31
2019-04-11T06:32:37.361Z,1017.36
2019-04-11T06:33:36.591Z,1017.28
2019-04-11T06:34:37.551Z,1017.33
2019-04-11T06:35:36.511Z,1017.35
2019-04-11T06:36:36.999Z,1017.39
2019-04-11T06:37:36.479Z,1017.40
2019-04-11T06:38:36.533Z,1017.43
2019-04-11T06:39:37.595Z,1017.33
2019-04-11T06:40:36.691Z,1017.42
2019-04-11T06:41:36.870Z,1017.39
2019-04-11T06:42:37.269Z,1017.43
2019-04-11T06:43:36.419Z,1017.46
2019-04-11T06:44:37.549Z,1017.37
2019-04-11T06:45:37.443Z,1017.39
2019-04-11T06:46:47.574Z,1017.35
2019-04-11T06:47:37.375Z,1017.36
2019-04-11T06:48:36.356Z,1017.40
2019-04-11T06:49:36.376Z,1017.39
2019-04-11T06:50:37.520Z,1017.39
2019-04-11T06:51:36.355Z,1017.38
2019-04-11T06:52:36.978Z,1017.43
2019-04-11T06:53:36.495Z,1017.43
2019-04-11T06:54:37.148Z,1017.52
2019-04-11T06:55:37.048Z,1017.45
2019-04-11T06:56:36.920Z,1017.37
2019-04-11T06:57:36.355Z,1017.40
2019-04-11T06:58:37.293Z,1017.42
2019-04-11T06:59:36.535Z,1017.45
2019-04-11T07:00:36.958Z,1017.47
2019-04-11T07:01:36.270Z,1017.46
2019-04-11T07:02:36.902Z,1017.41
2019-04-11T07:03:36.336Z,1017.41
2019-04-11T07:04:36.159Z,1017.45
2019-04-11T07:05:36.162Z,1017.46
2019-04-11T07:06:36.150Z,1017.57
2019-04-11T07:07:36.567Z,1017.50
2019-04-11T07:08:36.396Z,1017.50
2019-04-11T07:09:37.098Z,1017.55
2019-04-11T07:10:36.321Z,1017.56
2019-04-11T07:11:36.305Z,1017.55
2019-04-11T07:12:36.108Z,1017.53
2019-04-11T07:13:37.191Z,1017.55
2019-04-11T07:14:36.066Z,1017.56
2019-04-11T07:15:36.051Z,1017.60
2019-04-11T07:16:36.294Z,1017.62
2019-04-11T07:17:37.038Z,1017.60
2019-04-11T07:18:36.052Z,1017.63
2019-04-11T07:19:37.227Z,1017.60
2019-04-11T07:20:35.998Z,1017.64
2019-04-11T07:21:35.968Z,1017.65
2019-04-11T07:22:36.840Z,1017.63
2019-04-11T07:23:36.457Z,1017.75
2019-04-11T07:24:36.799Z,1017.64
2019-04-11T07:25:35.948Z,1017.65
2019-04-11T07:26:37.168Z,1017.69
2019-04-11T07:27:36.641Z,1017.71
2019-04-11T07:28:35.926Z,1017.67
2019-04-11T07:29:35.910Z,1017.71
2019-04-11T07:30:35.882Z,1017.67
2019-04-11T07:31:35.886Z,1017.69
2019-04-11T07:32:36.503Z,1017.73
2019-04-11T07:33:35.914Z,1017.74
2019-04-11T07:34:37.731Z,1017.82
2019-04-11T07:35:35.835Z,1017.75
2019-04-11T07:36:36.116Z,1017.77
2019-04-11T07:37:36.670Z,1017.57
2019-04-11T07:38:36.486Z,1017.72
2019-04-11T07:39:35.811Z,1017.76
2019-04-11T07:40:35.802Z,1017.73
2019-04-11T07:41:35.977Z,1017.70
2019-04-11T07:42:37.333Z,1017.76
2019-04-11T07:43:35.753Z,1017.73
2019-04-11T07:44:35.774Z,1017.74
2019-04-11T07:45:37.680Z,1017.80
2019-04-11T07:46:35.751Z,1017.85
2019-04-11T07:47:35.698Z,1017.79
2019-04-11T07:48:35.939Z,1017.79
2019-04-11T07:49:35.685Z,1017.82
2019-04-11T07:50:35.677Z,1017.72
2019-04-11T07:51:36.452Z,1017.62
2019-04-11T07:52:35.939Z,1017.88
2019-04-11T07:53:35.631Z,1017.62
2019-04-11T07:54:36.835Z,1017.78
2019-04-11T07:55:36.540Z,1017.66
2019-04-11T07:56:35.610Z,1017.85
2019-04-11T07:57:36.198Z,1017.87
2019-04-11T07:58:35.587Z,1017.71
2019-04-11T07:59:35.581Z,1017.84
2019-04-11T08:00:43.451Z,1017.68
2019-04-11T08:01:36.553Z,1017.82
2019-04-11T08:02:35.637Z,1017.67
2019-04-11T08:03:35.676Z,1017.84
2019-04-11T08:04:36.491Z,1017.81
2019-04-11T08:05:36.653Z,1017.87
2019-04-11T08:06:35.507Z,1017.88
2019-04-11T08:07:35.470Z,1017.84
2019-04-11T08:08:36.693Z,1017.83
2019-04-11T08:09:35.799Z,1017.82
2019-04-11T08:10:35.452Z,1017.84
2019-04-11T08:11:35.896Z,1017.86
2019-04-11T08:12:35.429Z,1017.79
2019-04-11T08:13:36.718Z,1017.76
2019-04-11T08:14:35.401Z,1017.71
2019-04-11T08:15:35.615Z,1017.82
2019-04-11T08:16:35.414Z,1017.85
2019-04-11T08:17:40.062Z,1017.92
2019-04-11T08:18:36.898Z,1017.83
2019-04-11T08:19:35.339Z,1017.79
2019-04-11T08:20:35.341Z,1017.75
2019-04-11T08:21:36.070Z,1017.77
2019-04-11T08:22:35.348Z,1017.69
2019-04-11T08:23:36.008Z,1017.75
2019-04-11T08:24:36.475Z,1017.68
2019-04-11T08:25:35.538Z,1017.70
2019-04-11T08:26:35.906Z,1017.67
2019-04-11T08:27:35.763Z,1017.64
2019-04-11T08:28:35.584Z,1017.67
2019-04-11T08:29:36.005Z,1017.66
2019-04-11T08:30:35.238Z,1017.64
2019-04-11T08:31:36.169Z,1017.63
2019-04-11T08:32:36.009Z,1017.68
2019-04-11T08:33:35.214Z,1017.62
2019-04-11T08:34:35.386Z,1017.63
2019-04-11T08:35:35.184Z,1017.64
2019-04-11T08:36:35.161Z,1017.62
2019-04-11T08:37:35.761Z,1017.71
2019-04-11T08:38:36.251Z,1017.69
2019-04-11T08:39:35.317Z,1017.61
2019-04-11T08:40:35.720Z,1017.75
2019-04-11T08:41:35.860Z,1017.69
2019-04-11T08:42:37.254Z,1017.74
2019-04-11T08:43:35.298Z,1017.68
2019-04-11T08:44:36.076Z,1017.65
2019-04-11T08:45:35.053Z,1017.65
2019-04-11T08:46:35.189Z,1017.74
2019-04-11T08:47:44.754Z,1017.92
2019-04-11T08:48:37.131Z,1017.89
2019-04-11T08:49:35.166Z,1017.94
2019-04-11T08:50:34.999Z,1017.82
2019-04-11T08:51:35.724Z,1017.88
2019-04-11T08:52:36.049Z,1017.94
2019-04-11T08:53:35.127Z,1017.87
2019-04-11T08:54:34.957Z,1017.84
2019-04-11T08:55:47.639Z,1017.85
2019-04-11T08:56:36.831Z,1017.89
2019-04-11T08:57:35.998Z,1017.82
2019-04-11T08:58:34.925Z,1017.73
2019-04-11T08:59:35.784Z,1017.73
2019-04-11T09:00:34.893Z,1017.85
2019-04-11T09:01:35.947Z,1017.73
2019-04-11T09:02:35.345Z,1017.77
2019-04-11T09:03:34.865Z,1017.79
2019-04-11T09:04:34.845Z,1017.78
2019-04-11T09:05:35.453Z,1017.78
2019-04-11T09:06:34.832Z,1017.63
2019-04-11T09:07:35.899Z,1017.70
2019-04-11T09:08:34.833Z,1017.69
2019-04-11T09:09:36.269Z,1017.67
2019-04-11T09:10:35.898Z,1017.59
2019-04-11T09:11:37.443Z,1017.65
2019-04-11T09:12:34.750Z,1017.60
2019-04-11T09:13:35.587Z,1017.57
2019-04-11T09:14:35.892Z,1017.63
2019-04-11T09:15:35.133Z,1017.65
2019-04-11T09:16:34.732Z,1017.69
2019-04-11T09:17:34.719Z,1017.57
2019-04-11T09:18:34.689Z,1017.64
2019-04-11T09:19:34.870Z,1017.61
2019-04-11T09:20:35.848Z,1017.57
2019-04-11T09:21:34.660Z,1017.59
2019-04-11T09:22:35.329Z,1017.57
2019-04-11T09:23:35.705Z,1017.58
2019-04-11T09:24:34.704Z,1017.58
2019-04-11T09:25:34.938Z,1017.60
2019-04-11T09:26:34.609Z,1017.69
2019-04-11T09:27:34.595Z,1017.65
2019-04-11T09:28:35.606Z,1017.65
2019-04-11T09:29:34.599Z,1017.66
2019-04-11T09:30:34.675Z,1017.70
2019-04-11T09:31:35.793Z,1017.75
2019-04-11T09:32:34.531Z,1017.75
2019-04-11T09:33:35.118Z,1017.66
2019-04-11T09:34:35.586Z,1017.66
2019-04-11T09:35:35.321Z,1017.64
2019-04-11T09:36:34.495Z,1017.73
2019-04-11T09:37:35.850Z,1017.65
2019-04-11T09:38:34.796Z,1017.68
2019-04-11T09:39:35.064Z,1017.60
2019-04-11T09:40:34.472Z,1017.58
2019-04-11T09:41:34.427Z,1017.68
2019-04-11T09:42:34.640Z,1017.66
2019-04-11T09:43:34.417Z,1017.61
2019-04-11T09:44:34.988Z,1017.61
2019-04-11T09:45:35.387Z,1017.58
2019-04-11T09:46:34.517Z,1017.55
2019-04-11T09:47:34.373Z,1017.54
2019-04-11T09:48:34.653Z,1017.58
2019-04-11T09:49:36.073Z,1017.57
2019-04-11T09:50:34.376Z,1017.66
2019-04-11T09:51:34.341Z,1017.60
2019-04-11T09:52:34.330Z,1017.62
2019-04-11T09:53:34.544Z,1017.62
2019-04-11T09:54:35.116Z,1017.62
2019-04-11T09:55:34.277Z,1017.64
2019-04-11T09:56:36.192Z,1017.67
2019-04-11T09:57:34.725Z,1017.66
2019-04-11T09:58:34.261Z,1017.66
2019-04-11T09:59:34.257Z,1017.65
2019-04-11T10:00:34.755Z,1017.66
2019-04-11T10:01:35.109Z,1017.63
2019-04-11T10:02:35.260Z,1017.56
2019-04-11T10:03:34.574Z,1017.58
2019-04-11T10:04:34.185Z,1017.65
2019-04-11T10:05:34.244Z,1017.62
2019-04-11T10:06:34.432Z,1017.60
2019-04-11T10:07:34.188Z,1017.63
2019-04-11T10:08:35.137Z,1017.54
2019-04-11T10:09:34.135Z,1017.56
2019-04-11T10:10:35.268Z,1017.66
2019-04-11T10:11:34.473Z,1017.62
2019-04-11T10:12:34.111Z,1017.58
2019-04-11T10:13:35.504Z,1017.60
2019-04-11T10:14:34.066Z,1017.61
2019-04-11T10:15:34.053Z,1017.55
2019-04-11T10:16:34.070Z,1017.57
2019-04-11T10:17:34.054Z,1017.60
2019-04-11T10:18:38.496Z,1017.58
2019-04-11T10:19:36.005Z,1017.56
2019-04-11T10:20:34.991Z,1017.56
2019-04-11T10:21:34.121Z,1017.41
2019-04-11T10:22:34.154Z,1017.59
2019-04-11T10:23:34.549Z,1017.64
2019-04-11T10:24:34.674Z,1017.60
2019-04-11T10:25:35.132Z,1017.60
2019-04-11T10:26:34.199Z,1017.66
2019-04-11T10:27:33.949Z,1017.73
2019-04-11T10:28:33.908Z,1017.77
2019-04-11T10:29:34.633Z,1017.74
2019-04-11T10:30:33.915Z,1017.61
2019-04-11T10:31:34.672Z,1017.65
2019-04-11T10:32:35.022Z,1017.63
2019-04-11T10:33:35.072Z,1017.68
2019-04-11T10:34:33.839Z,1017.70
2019-04-11T10:35:34.562Z,1017.68
2019-04-11T10:36:34.836Z,1017.73
2019-04-11T10:37:33.885Z,1017.70
2019-04-11T10:38:33.848Z,1017.75
2019-04-11T10:39:33.795Z,1017.71
2019-04-11T10:40:34.399Z,1017.71
2019-04-11T10:41:33.779Z,1017.69
2019-04-11T10:42:34.939Z,1017.73
2019-04-11T10:43:34.202Z,1017.71
2019-04-11T10:44:34.010Z,1017.69
2019-04-11T10:45:34.413Z,1017.76
2019-04-11T10:46:33.714Z,1017.71
2019-04-11T10:47:33.701Z,1017.79
2019-04-11T10:48:39.294Z,1017.76
2019-04-11T10:49:34.691Z,1017.82
2019-04-11T10:50:34.050Z,1017.78
2019-04-11T10:51:33.860Z,1017.74
2019-04-11T10:52:34.250Z,1017.71
2019-04-11T10:53:33.657Z,1017.77
2019-04-11T10:54:33.627Z,1017.72
2019-04-11T10:55:33.680Z,1017.80
2019-04-11T10:56:34.672Z,1017.87
2019-04-11T10:57:33.589Z,1017.77
2019-04-11T10:58:33.583Z,1017.74
2019-04-11T10:59:34.490Z,1017.74
2019-04-11T11:00:33.593Z,1017.68
2019-04-11T11:01:33.851Z,1017.75
2019-04-11T11:02:33.678Z,1017.74
2019-04-11T11:03:34.071Z,1017.78
2019-04-11T11:04:34.626Z,1017.72
2019-04-11T11:05:34.557Z,1017.85
2019-04-11T11:06:33.714Z,1017.81
2019-04-11T11:07:33.484Z,1017.72
2019-04-11T11:08:33.483Z,1017.74
2019-04-11T11:09:35.349Z,1017.72
2019-04-11T11:10:33.461Z,1017.76
2019-04-11T11:11:34.456Z,1017.75
2019-04-11T11:12:33.434Z,1017.61
2019-04-11T11:13:34.035Z,1017.79
2019-04-11T11:14:34.436Z,1017.72
2019-04-11T11:15:33.762Z,1017.80
2019-04-11T11:16:34.161Z,1017.76
2019-04-11T11:17:54.990Z,1017.68
2019-04-11T11:18:53.969Z,1017.72
2019-04-11T11:19:50.935Z,1017.69
2019-04-11T11:20:39.394Z,1017.80
2019-04-11T11:21:35.648Z,1017.76
2019-04-11T11:22:34.464Z,1017.75
2019-04-11T11:23:33.318Z,1017.77
2019-04-11T11:24:33.732Z,1017.72
2019-04-11T11:25:33.802Z,1017.69
2019-04-11T11:26:33.888Z,1017.65
2019-04-11T11:27:33.274Z,1017.73
2019-04-11T11:28:34.325Z,1017.75
2019-04-11T11:29:33.245Z,1017.78
2019-04-11T11:30:33.257Z,1017.73
2019-04-11T11:31:33.217Z,1017.78
2019-04-11T11:32:33.646Z,1017.80
2019-04-11T11:33:34.104Z,1017.69
2019-04-11T11:34:33.200Z,1017.83
2019-04-11T11:35:37.041Z,1017.82
2019-04-11T11:36:37.511Z,1017.79
2019-04-11T11:37:33.389Z,1017.89
2019-04-11T11:38:33.688Z,1017.86
2019-04-11T11:39:33.460Z,1017.87
2019-04-11T11:40:38.158Z,1017.88
2019-04-11T11:41:34.385Z,1017.84
2019-04-11T11:42:33.108Z,1017.87
2019-04-11T11:43:33.100Z,1017.84
2019-04-11T11:44:33.092Z,1017.88
2019-04-11T11:45:33.269Z,1017.94
2019-04-11T11:46:34.149Z,1017.88
2019-04-11T11:47:35.713Z,1017.91
2019-04-11T11:48:34.038Z,1017.94
2019-04-11T11:49:45.989Z,1017.97
2019-04-11T11:50:34.917Z,1017.89
2019-04-11T11:51:33.288Z,1017.95
2019-04-11T11:52:34.541Z,1017.96
2019-04-11T11:53:33.092Z,1017.95
2019-04-11T11:54:32.974Z,1017.97
2019-04-11T11:55:33.515Z,1017.87
2019-04-11T11:56:34.035Z,1017.98
2019-04-11T11:57:33.050Z,1018.00
2019-04-11T11:58:33.411Z,1017.99
2019-04-11T11:59:32.940Z,1017.93
2019-04-11T12:00:33.338Z,1017.96
2019-04-11T12:01:32.891Z,1017.85
2019-04-11T12:02:32.874Z,1018.02
2019-04-11T12:03:33.081Z,1017.95
2019-04-11T12:04:35.311Z,1017.97
2019-04-11T12:05:32.862Z,1017.97
2019-04-11T12:06:33.371Z,1018.07
2019-04-11T12:07:36.225Z,1018.04
2019-04-11T12:08:32.818Z,1018.08
2019-04-11T12:09:32.812Z,1018.07